sensor_id;sensor_type;location;lat;lon;timestamp;temperature;humidity
7494;DHT22;3788;49.902;8.590;2023-07-13T00:01:27;21.10;64.40
7494;DHT22;3788;49.902;8.590;2023-07-13T00:03:54;21.10;64.70
7494;DHT22;3788;49.902;8.590;2023-07-13T00:06:21;21.00;64.70
7494;DHT22;3788;49.902;8.590;2023-07-13T00:08:48;21.00;64.80
7494;DHT22;3788;49.902;8.590;2023-07-13T00:11:15;21.00;65.00
7494;DHT22;3788;49.902;8.590;2023-07-13T00:13:43;21.00;65.10
7494;DHT22;3788;49.902;8.590;2023-07-13T00:16:11;21.00;65.20
7494;DHT22;3788;49.902;8.590;2023-07-13T00:18:39;21.00;65.30
7494;DHT22;3788;49.902;8.590;2023-07-13T00:21:06;21.00;65.50
7494;DHT22;3788;49.902;8.590;2023-07-13T00:23:33;20.90;65.60
7494;DHT22;3788;49.902;8.590;2023-07-13T00:26:00;20.90;65.80
7494;DHT22;3788;49.902;8.590;2023-07-13T00:28:27;20.90;66.00
7494;DHT22;3788;49.902;8.590;2023-07-13T00:30:54;20.90;66.10
7494;DHT22;3788;49.902;8.590;2023-07-13T00:33:22;20.90;66.30
7494;DHT22;3788;49.902;8.590;2023-07-13T00:35:49;20.80;66.30
7494;DHT22;3788;49.902;8.590;2023-07-13T00:38:16;20.70;66.30
7494;DHT22;3788;49.902;8.590;2023-07-13T00:40:43;20.70;66.60
7494;DHT22;3788;49.902;8.590;2023-07-13T00:43:17;20.60;66.90
7494;DHT22;3788;49.902;8.590;2023-07-13T00:46:25;20.50;68.10
7494;DHT22;3788;49.902;8.590;2023-07-13T00:48:54;20.50;67.70
7494;DHT22;3788;49.902;8.590;2023-07-13T00:51:25;20.40;67.70
7494;DHT22;3788;49.902;8.590;2023-07-13T00:53:54;20.40;67.90
7494;DHT22;3788;49.902;8.590;2023-07-13T00:56:23;20.40;68.20
7494;DHT22;3788;49.902;8.590;2023-07-13T00:58:50;20.30;68.80
7494;DHT22;3788;49.902;8.590;2023-07-13T01:01:16;20.30;69.10
7494;DHT22;3788;49.902;8.590;2023-07-13T01:03:43;20.20;69.40
7494;DHT22;3788;49.902;8.590;2023-07-13T01:06:13;20.20;69.80
7494;DHT22;3788;49.902;8.590;2023-07-13T01:08:40;20.10;70.00
7494;DHT22;3788;49.902;8.590;2023-07-13T01:11:07;20.10;70.10
7494;DHT22;3788;49.902;8.590;2023-07-13T01:13:34;20.10;70.30
7494;DHT22;3788;49.902;8.590;2023-07-13T01:16:03;20.00;70.40
7494;DHT22;3788;49.902;8.590;2023-07-13T01:18:33;20.00;70.70
7494;DHT22;3788;49.902;8.590;2023-07-13T01:21:03;19.90;70.80
7494;DHT22;3788;49.902;8.590;2023-07-13T01:23:31;19.90;71.10
7494;DHT22;3788;49.902;8.590;2023-07-13T01:25:59;19.80;71.10
7494;DHT22;3788;49.902;8.590;2023-07-13T01:28:26;19.80;71.40
7494;DHT22;3788;49.902;8.590;2023-07-13T01:30:54;19.60;71.40
7494;DHT22;3788;49.902;8.590;2023-07-13T01:33:22;19.60;71.80
7494;DHT22;3788;49.902;8.590;2023-07-13T01:35:49;19.60;71.90
7494;DHT22;3788;49.902;8.590;2023-07-13T01:38:21;19.60;72.00
7494;DHT22;3788;49.902;8.590;2023-07-13T01:40:49;19.60;72.20
7494;DHT22;3788;49.902;8.590;2023-07-13T01:43:16;19.60;72.30
7494;DHT22;3788;49.902;8.590;2023-07-13T01:45:42;19.60;72.40
7494;DHT22;3788;49.902;8.590;2023-07-13T01:48:10;19.50;72.50
7494;DHT22;3788;49.902;8.590;2023-07-13T01:50:37;19.50;72.60
7494;DHT22;3788;49.902;8.590;2023-07-13T01:53:04;19.50;72.70
7494;DHT22;3788;49.902;8.590;2023-07-13T01:55:33;19.40;72.70
7494;DHT22;3788;49.902;8.590;2023-07-13T01:57:59;19.40;72.90
7494;DHT22;3788;49.902;8.590;2023-07-13T02:00:26;19.40;73.10
7494;DHT22;3788;49.902;8.590;2023-07-13T02:02:53;19.30;73.10
7494;DHT22;3788;49.902;8.590;2023-07-13T02:05:20;19.20;73.30
7494;DHT22;3788;49.902;8.590;2023-07-13T02:07:47;19.10;73.50
7494;DHT22;3788;49.902;8.590;2023-07-13T02:10:14;19.10;73.90
7494;DHT22;3788;49.902;8.590;2023-07-13T02:12:42;19.00;74.00
7494;DHT22;3788;49.902;8.590;2023-07-13T02:15:10;19.00;74.30
7494;DHT22;3788;49.902;8.590;2023-07-13T02:17:36;18.90;74.30
7494;DHT22;3788;49.902;8.590;2023-07-13T02:20:04;18.90;74.40
7494;DHT22;3788;49.902;8.590;2023-07-13T02:22:31;18.80;74.40
7494;DHT22;3788;49.902;8.590;2023-07-13T02:24:59;18.80;74.60
7494;DHT22;3788;49.902;8.590;2023-07-13T02:27:26;18.80;74.70
7494;DHT22;3788;49.902;8.590;2023-07-13T02:29:54;18.80;74.80
7494;DHT22;3788;49.902;8.590;2023-07-13T02:32:21;18.90;75.00
7494;DHT22;3788;49.902;8.590;2023-07-13T02:34:47;18.80;74.90
7494;DHT22;3788;49.902;8.590;2023-07-13T02:37:14;18.80;75.10
7494;DHT22;3788;49.902;8.590;2023-07-13T02:39:42;18.80;75.40
7494;DHT22;3788;49.902;8.590;2023-07-13T02:42:08;18.70;75.40
7494;DHT22;3788;49.902;8.590;2023-07-13T02:44:35;18.60;76.10
7494;DHT22;3788;49.902;8.590;2023-07-13T02:47:03;18.50;76.80
7494;DHT22;3788;49.902;8.590;2023-07-13T02:49:30;18.30;77.50
7494;DHT22;3788;49.902;8.590;2023-07-13T02:51:57;18.20;78.00
7494;DHT22;3788;49.902;8.590;2023-07-13T02:54:24;18.10;78.50
7494;DHT22;3788;49.902;8.590;2023-07-13T02:56:50;18.10;78.60
7494;DHT22;3788;49.902;8.590;2023-07-13T02:59:17;18.00;79.30
7494;DHT22;3788;49.902;8.590;2023-07-13T03:01:43;17.90;79.80
7494;DHT22;3788;49.902;8.590;2023-07-13T03:04:11;17.90;79.80
7494;DHT22;3788;49.902;8.590;2023-07-13T03:06:38;17.80;80.10
7494;DHT22;3788;49.902;8.590;2023-07-13T03:09:05;17.80;80.30
7494;DHT22;3788;49.902;8.590;2023-07-13T03:11:32;17.80;80.40
7494;DHT22;3788;49.902;8.590;2023-07-13T03:13:58;17.80;80.70
7494;DHT22;3788;49.902;8.590;2023-07-13T03:16:25;17.70;80.70
7494;DHT22;3788;49.902;8.590;2023-07-13T03:18:52;17.70;80.90
7494;DHT22;3788;49.902;8.590;2023-07-13T03:21:20;17.70;81.70
7494;DHT22;3788;49.902;8.590;2023-07-13T03:23:47;17.70;81.10
7494;DHT22;3788;49.902;8.590;2023-07-13T03:26:16;17.70;81.30
7494;DHT22;3788;49.902;8.590;2023-07-13T03:28:44;17.70;81.40
7494;DHT22;3788;49.902;8.590;2023-07-13T03:31:13;17.70;81.40
7494;DHT22;3788;49.902;8.590;2023-07-13T03:33:40;17.70;81.60
7494;DHT22;3788;49.902;8.590;2023-07-13T03:36:10;17.70;81.40
7494;DHT22;3788;49.902;8.590;2023-07-13T03:38:38;17.70;81.20
7494;DHT22;3788;49.902;8.590;2023-07-13T03:41:05;17.70;81.10
7494;DHT22;3788;49.902;8.590;2023-07-13T03:43:32;17.70;81.40
7494;DHT22;3788;49.902;8.590;2023-07-13T03:45:58;17.70;81.20
7494;DHT22;3788;49.902;8.590;2023-07-13T03:48:25;17.70;81.40
7494;DHT22;3788;49.902;8.590;2023-07-13T03:50:52;17.70;81.60
7494;DHT22;3788;49.902;8.590;2023-07-13T03:53:18;17.70;81.80
7494;DHT22;3788;49.902;8.590;2023-07-13T03:55:46;17.70;81.90
7494;DHT22;3788;49.902;8.590;2023-07-13T03:58:31;17.70;81.90
7494;DHT22;3788;49.902;8.590;2023-07-13T04:00:59;17.80;82.10
7494;DHT22;3788;49.902;8.590;2023-07-13T04:03:26;17.80;82.10
7494;DHT22;3788;49.902;8.590;2023-07-13T04:05:54;17.80;82.00
7494;DHT22;3788;49.902;8.590;2023-07-13T04:08:23;17.90;81.90
7494;DHT22;3788;49.902;8.590;2023-07-13T04:10:51;17.90;81.60
7494;DHT22;3788;49.902;8.590;2023-07-13T04:13:18;17.90;81.30
7494;DHT22;3788;49.902;8.590;2023-07-13T04:15:45;18.00;81.20
7494;DHT22;3788;49.902;8.590;2023-07-13T04:18:12;18.00;81.00
7494;DHT22;3788;49.902;8.590;2023-07-13T04:20:38;18.10;80.90
7494;DHT22;3788;49.902;8.590;2023-07-13T04:23:05;18.10;80.70
7494;DHT22;3788;49.902;8.590;2023-07-13T04:25:31;18.20;80.60
7494;DHT22;3788;49.902;8.590;2023-07-13T04:27:59;18.20;80.50
7494;DHT22;3788;49.902;8.590;2023-07-13T04:30:26;18.30;80.20
7494;DHT22;3788;49.902;8.590;2023-07-13T04:32:53;18.30;80.00
7494;DHT22;3788;49.902;8.590;2023-07-13T04:35:20;18.40;79.80
7494;DHT22;3788;49.902;8.590;2023-07-13T04:37:47;18.40;79.60
7494;DHT22;3788;49.902;8.590;2023-07-13T04:40:15;18.40;79.60
7494;DHT22;3788;49.902;8.590;2023-07-13T04:42:43;18.50;79.40
7494;DHT22;3788;49.902;8.590;2023-07-13T04:45:11;18.50;79.30
7494;DHT22;3788;49.902;8.590;2023-07-13T04:47:38;18.50;79.20
7494;DHT22;3788;49.902;8.590;2023-07-13T04:50:06;18.50;79.00
7494;DHT22;3788;49.902;8.590;2023-07-13T04:52:33;18.50;79.20
7494;DHT22;3788;49.902;8.590;2023-07-13T04:55:00;18.60;79.50
7494;DHT22;3788;49.902;8.590;2023-07-13T04:57:28;18.50;79.60
7494;DHT22;3788;49.902;8.590;2023-07-13T04:59:54;18.50;79.80
7494;DHT22;3788;49.902;8.590;2023-07-13T05:02:22;18.50;80.00
7494;DHT22;3788;49.902;8.590;2023-07-13T05:04:49;18.50;80.00
7494;DHT22;3788;49.902;8.590;2023-07-13T05:07:16;18.50;80.00
7494;DHT22;3788;49.902;8.590;2023-07-13T05:09:42;18.60;80.10
7494;DHT22;3788;49.902;8.590;2023-07-13T05:12:09;18.60;80.20
7494;DHT22;3788;49.902;8.590;2023-07-13T05:14:36;18.60;80.60
7494;DHT22;3788;49.902;8.590;2023-07-13T05:17:03;18.60;80.70
7494;DHT22;3788;49.902;8.590;2023-07-13T05:19:32;18.60;80.80
7494;DHT22;3788;49.902;8.590;2023-07-13T05:21:58;18.60;80.80
7494;DHT22;3788;49.902;8.590;2023-07-13T05:24:25;18.70;80.60
7494;DHT22;3788;49.902;8.590;2023-07-13T05:26:52;18.70;80.60
7494;DHT22;3788;49.902;8.590;2023-07-13T05:29:19;18.80;80.50
7494;DHT22;3788;49.902;8.590;2023-07-13T05:31:46;18.90;80.60
7494;DHT22;3788;49.902;8.590;2023-07-13T05:34:13;18.90;80.30
7494;DHT22;3788;49.902;8.590;2023-07-13T05:36:41;19.00;80.00
7494;DHT22;3788;49.902;8.590;2023-07-13T05:39:08;19.00;79.40
7494;DHT22;3788;49.902;8.590;2023-07-13T05:41:36;19.00;78.90
7494;DHT22;3788;49.902;8.590;2023-07-13T05:44:03;19.10;79.10
7494;DHT22;3788;49.902;8.590;2023-07-13T05:46:30;19.20;79.20
7494;DHT22;3788;49.902;8.590;2023-07-13T05:48:57;19.30;79.10
7494;DHT22;3788;49.902;8.590;2023-07-13T05:51:24;19.30;78.80
7494;DHT22;3788;49.902;8.590;2023-07-13T05:53:52;19.40;78.40
7494;DHT22;3788;49.902;8.590;2023-07-13T05:56:19;19.50;77.90
7494;DHT22;3788;49.902;8.590;2023-07-13T05:58:45;19.50;77.70
7494;DHT22;3788;49.902;8.590;2023-07-13T06:01:13;19.60;77.60
7494;DHT22;3788;49.902;8.590;2023-07-13T06:03:40;19.70;77.50
7494;DHT22;3788;49.902;8.590;2023-07-13T06:06:08;19.80;77.50
7494;DHT22;3788;49.902;8.590;2023-07-13T06:08:35;19.90;76.90
7494;DHT22;3788;49.902;8.590;2023-07-13T06:11:05;19.90;76.30
7494;DHT22;3788;49.902;8.590;2023-07-13T06:13:32;20.00;75.70
7494;DHT22;3788;49.902;8.590;2023-07-13T06:16:00;20.10;75.40
7494;DHT22;3788;49.902;8.590;2023-07-13T06:18:29;20.10;74.90
7494;DHT22;3788;49.902;8.590;2023-07-13T06:20:56;20.20;74.80
7494;DHT22;3788;49.902;8.590;2023-07-13T06:23:22;20.30;74.60
7494;DHT22;3788;49.902;8.590;2023-07-13T06:25:50;20.40;74.40
7494;DHT22;3788;49.902;8.590;2023-07-13T06:28:19;20.40;74.30
7494;DHT22;3788;49.902;8.590;2023-07-13T06:30:45;20.50;74.30
7494;DHT22;3788;49.902;8.590;2023-07-13T06:33:15;20.60;74.00
7494;DHT22;3788;49.902;8.590;2023-07-13T06:35:42;20.60;73.70
7494;DHT22;3788;49.902;8.590;2023-07-13T06:38:09;20.70;73.40
7494;DHT22;3788;49.902;8.590;2023-07-13T06:40:36;20.70;73.10
7494;DHT22;3788;49.902;8.590;2023-07-13T06:43:03;20.80;72.30
7494;DHT22;3788;49.902;8.590;2023-07-13T06:45:35;20.90;71.80
7494;DHT22;3788;49.902;8.590;2023-07-13T06:48:02;20.90;71.50
7494;DHT22;3788;49.902;8.590;2023-07-13T06:50:29;21.00;71.60
7494;DHT22;3788;49.902;8.590;2023-07-13T06:52:56;21.00;71.00
7494;DHT22;3788;49.902;8.590;2023-07-13T06:55:25;21.10;70.90
7494;DHT22;3788;49.902;8.590;2023-07-13T06:57:51;21.20;70.80
7494;DHT22;3788;49.902;8.590;2023-07-13T07:00:18;21.30;69.90
7494;DHT22;3788;49.902;8.590;2023-07-13T07:02:46;21.40;69.10
7494;DHT22;3788;49.902;8.590;2023-07-13T07:05:13;21.40;68.70
7494;DHT22;3788;49.902;8.590;2023-07-13T07:07:40;21.50;68.30
7494;DHT22;3788;49.902;8.590;2023-07-13T07:10:07;21.50;68.30
7494;DHT22;3788;49.902;8.590;2023-07-13T07:12:34;21.60;68.30
7494;DHT22;3788;49.902;8.590;2023-07-13T07:15:01;21.70;69.10
7494;DHT22;3788;49.902;8.590;2023-07-13T07:17:28;21.70;67.90
7494;DHT22;3788;49.902;8.590;2023-07-13T07:19:56;21.70;67.50
7494;DHT22;3788;49.902;8.590;2023-07-13T07:22:23;21.80;68.00
7494;DHT22;3788;49.902;8.590;2023-07-13T07:24:52;21.90;68.10
7494;DHT22;3788;49.902;8.590;2023-07-13T07:27:19;21.90;67.90
7494;DHT22;3788;49.902;8.590;2023-07-13T07:29:46;22.00;67.90
7494;DHT22;3788;49.902;8.590;2023-07-13T07:32:12;22.20;67.80
7494;DHT22;3788;49.902;8.590;2023-07-13T07:34:39;22.30;67.40
7494;DHT22;3788;49.902;8.590;2023-07-13T07:37:11;22.40;67.00
7494;DHT22;3788;49.902;8.590;2023-07-13T07:39:38;22.50;68.50
7494;DHT22;3788;49.902;8.590;2023-07-13T07:42:06;22.50;69.30
7494;DHT22;3788;49.902;8.590;2023-07-13T07:44:32;22.60;68.50
7494;DHT22;3788;49.902;8.590;2023-07-13T07:46:59;23.30;67.60
7494;DHT22;3788;49.902;8.590;2023-07-13T07:49:26;24.10;65.20
7494;DHT22;3788;49.902;8.590;2023-07-13T07:51:53;24.40;64.60
7494;DHT22;3788;49.902;8.590;2023-07-13T07:54:21;25.00;65.10
7494;DHT22;3788;49.902;8.590;2023-07-13T07:56:48;25.70;62.10
7494;DHT22;3788;49.902;8.590;2023-07-13T07:59:15;26.30;60.60
7494;DHT22;3788;49.902;8.590;2023-07-13T08:01:41;26.90;59.60
7494;DHT22;3788;49.902;8.590;2023-07-13T08:04:09;27.70;57.90
7494;DHT22;3788;49.902;8.590;2023-07-13T08:06:35;28.00;57.30
7494;DHT22;3788;49.902;8.590;2023-07-13T08:09:02;28.10;57.50
7494;DHT22;3788;49.902;8.590;2023-07-13T08:11:31;28.40;56.60
7494;DHT22;3788;49.902;8.590;2023-07-13T08:13:58;28.70;55.90
7494;DHT22;3788;49.902;8.590;2023-07-13T08:16:24;29.00;55.50
7494;DHT22;3788;49.902;8.590;2023-07-13T08:18:51;29.30;54.60
7494;DHT22;3788;49.902;8.590;2023-07-13T08:21:18;29.40;54.50
7494;DHT22;3788;49.902;8.590;2023-07-13T08:23:46;29.50;54.10
7494;DHT22;3788;49.902;8.590;2023-07-13T08:26:12;29.80;53.50
7494;DHT22;3788;49.902;8.590;2023-07-13T08:28:40;29.90;52.40
7494;DHT22;3788;49.902;8.590;2023-07-13T08:31:08;29.90;52.50
7494;DHT22;3788;49.902;8.590;2023-07-13T08:33:36;30.00;51.70
7494;DHT22;3788;49.902;8.590;2023-07-13T08:36:04;30.00;51.00
7494;DHT22;3788;49.902;8.590;2023-07-13T08:38:32;30.00;51.00
7494;DHT22;3788;49.902;8.590;2023-07-13T08:40:59;30.00;50.50
7494;DHT22;3788;49.902;8.590;2023-07-13T08:43:28;29.70;50.40
7494;DHT22;3788;49.902;8.590;2023-07-13T08:46:01;29.30;49.90
7494;DHT22;3788;49.902;8.590;2023-07-13T08:48:32;28.90;50.50
7494;DHT22;3788;49.902;8.590;2023-07-13T08:51:04;28.60;50.90
7494;DHT22;3788;49.902;8.590;2023-07-13T08:53:38;28.60;50.80
7494;DHT22;3788;49.902;8.590;2023-07-13T08:56:14;28.80;50.40
7494;DHT22;3788;49.902;8.590;2023-07-13T08:58:43;28.80;50.30
7494;DHT22;3788;49.902;8.590;2023-07-13T09:01:17;28.60;50.90
7494;DHT22;3788;49.902;8.590;2023-07-13T09:03:50;28.20;50.80
7494;DHT22;3788;49.902;8.590;2023-07-13T09:06:23;27.80;51.50
7494;DHT22;3788;49.902;8.590;2023-07-13T09:08:58;27.30;51.80
7494;DHT22;3788;49.902;8.590;2023-07-13T09:11:35;26.90;52.50
7494;DHT22;3788;49.902;8.590;2023-07-13T09:14:13;26.60;52.80
7494;DHT22;3788;49.902;8.590;2023-07-13T09:16:48;26.50;53.90
7494;DHT22;3788;49.902;8.590;2023-07-13T09:19:21;26.40;53.40
7494;DHT22;3788;49.902;8.590;2023-07-13T09:21:51;26.40;53.80
7494;DHT22;3788;49.902;8.590;2023-07-13T09:24:29;26.50;53.90
7494;DHT22;3788;49.902;8.590;2023-07-13T09:26:58;26.50;53.50
7494;DHT22;3788;49.902;8.590;2023-07-13T09:29:28;26.40;52.20
7494;DHT22;3788;49.902;8.590;2023-07-13T09:32:00;26.50;52.30
7494;DHT22;3788;49.902;8.590;2023-07-13T09:34:28;26.80;51.90
7494;DHT22;3788;49.902;8.590;2023-07-13T09:36:56;27.00;51.20
7494;DHT22;3788;49.902;8.590;2023-07-13T09:39:25;27.40;51.30
7494;DHT22;3788;49.902;8.590;2023-07-13T09:41:57;27.90;51.10
7494;DHT22;3788;49.902;8.590;2023-07-13T09:44:30;28.30;49.90
7494;DHT22;3788;49.902;8.590;2023-07-13T09:46:59;28.60;49.50
7494;DHT22;3788;49.902;8.590;2023-07-13T09:49:28;29.10;48.70
7494;DHT22;3788;49.902;8.590;2023-07-13T09:51:59;29.30;47.90
7494;DHT22;3788;49.902;8.590;2023-07-13T09:54:26;29.20;47.40
7494;DHT22;3788;49.902;8.590;2023-07-13T09:56:56;29.10;47.40
7494;DHT22;3788;49.902;8.590;2023-07-13T09:59:27;28.80;47.60
7494;DHT22;3788;49.902;8.590;2023-07-13T10:01:55;28.60;48.70
7494;DHT22;3788;49.902;8.590;2023-07-13T10:04:29;28.40;48.80
7494;DHT22;3788;49.902;8.590;2023-07-13T10:07:05;28.40;48.10
7494;DHT22;3788;49.902;8.590;2023-07-13T10:09:33;28.40;48.00
7494;DHT22;3788;49.902;8.590;2023-07-13T10:11:59;28.40;47.70
7494;DHT22;3788;49.902;8.590;2023-07-13T10:14:27;28.40;47.90
7494;DHT22;3788;49.902;8.590;2023-07-13T10:16:59;28.70;48.10
7494;DHT22;3788;49.902;8.590;2023-07-13T10:19:31;28.80;47.70
7494;DHT22;3788;49.902;8.590;2023-07-13T10:22:00;28.70;47.80
7494;DHT22;3788;49.902;8.590;2023-07-13T10:24:31;28.50;48.40
7494;DHT22;3788;49.902;8.590;2023-07-13T10:27:02;28.50;48.20
7494;DHT22;3788;49.902;8.590;2023-07-13T10:29:35;28.60;48.10
7494;DHT22;3788;49.902;8.590;2023-07-13T10:32:08;28.30;47.70
7494;DHT22;3788;49.902;8.590;2023-07-13T10:34:37;28.00;47.10
7494;DHT22;3788;49.902;8.590;2023-07-13T10:37:05;27.60;47.10
7494;DHT22;3788;49.902;8.590;2023-07-13T10:39:35;27.30;47.40
7494;DHT22;3788;49.902;8.590;2023-07-13T10:42:05;27.00;47.60
7494;DHT22;3788;49.902;8.590;2023-07-13T10:44:33;26.80;48.30
7494;DHT22;3788;49.902;8.590;2023-07-13T10:47:02;26.50;48.50
7494;DHT22;3788;49.902;8.590;2023-07-13T10:49:32;26.40;48.80
7494;DHT22;3788;49.902;8.590;2023-07-13T10:52:02;26.30;49.10
7494;DHT22;3788;49.902;8.590;2023-07-13T10:54:31;26.40;49.60
7494;DHT22;3788;49.902;8.590;2023-07-13T10:57:15;26.40;49.40
7494;DHT22;3788;49.902;8.590;2023-07-13T10:59:46;26.40;49.50
7494;DHT22;3788;49.902;8.590;2023-07-13T11:02:22;26.40;48.50
7494;DHT22;3788;49.902;8.590;2023-07-13T11:04:49;26.30;49.00
7494;DHT22;3788;49.902;8.590;2023-07-13T11:07:22;26.20;48.20
7494;DHT22;3788;49.902;8.590;2023-07-13T11:09:50;26.30;48.70
7494;DHT22;3788;49.902;8.590;2023-07-13T11:12:49;26.40;48.30
7494;DHT22;3788;49.902;8.590;2023-07-13T11:15:28;26.70;49.00
7494;DHT22;3788;49.902;8.590;2023-07-13T11:17:56;27.10;48.60
7494;DHT22;3788;49.902;8.590;2023-07-13T11:20:46;27.30;47.40
7494;DHT22;3788;49.902;8.590;2023-07-13T11:23:30;27.50;47.90
7494;DHT22;3788;49.902;8.590;2023-07-13T11:25:57;27.70;47.80
7494;DHT22;3788;49.902;8.590;2023-07-13T11:28:29;27.70;48.20
7494;DHT22;3788;49.902;8.590;2023-07-13T11:31:02;27.60;47.20
7494;DHT22;3788;49.902;8.590;2023-07-13T11:33:51;27.60;46.60
7494;DHT22;3788;49.902;8.590;2023-07-13T11:36:20;27.60;45.60
7494;DHT22;3788;49.902;8.590;2023-07-13T11:38:57;27.60;46.20
7494;DHT22;3788;49.902;8.590;2023-07-13T11:41:27;27.40;47.00
7494;DHT22;3788;49.902;8.590;2023-07-13T11:44:01;27.30;47.70
7494;DHT22;3788;49.902;8.590;2023-07-13T11:46:28;27.20;46.10
7494;DHT22;3788;49.902;8.590;2023-07-13T11:48:55;27.00;47.00
7494;DHT22;3788;49.902;8.590;2023-07-13T11:51:25;26.80;46.80
7494;DHT22;3788;49.902;8.590;2023-07-13T11:53:55;26.60;46.60
7494;DHT22;3788;49.902;8.590;2023-07-13T11:56:24;26.50;47.30
7494;DHT22;3788;49.902;8.590;2023-07-13T11:58:55;26.50;48.00
7494;DHT22;3788;49.902;8.590;2023-07-13T12:01:26;26.50;48.50
7494;DHT22;3788;49.902;8.590;2023-07-13T12:03:54;26.70;48.70
7494;DHT22;3788;49.902;8.590;2023-07-13T12:06:26;26.90;48.50
7494;DHT22;3788;49.902;8.590;2023-07-13T12:08:57;26.90;49.40
7494;DHT22;3788;49.902;8.590;2023-07-13T12:11:25;26.90;49.20
7494;DHT22;3788;49.902;8.590;2023-07-13T12:13:52;26.70;49.30
7494;DHT22;3788;49.902;8.590;2023-07-13T12:16:27;26.60;49.70
7494;DHT22;3788;49.902;8.590;2023-07-13T12:18:55;26.50;49.90
7494;DHT22;3788;49.902;8.590;2023-07-13T12:21:27;26.40;49.50
7494;DHT22;3788;49.902;8.590;2023-07-13T12:23:57;26.40;49.80
7494;DHT22;3788;49.902;8.590;2023-07-13T12:26:24;26.40;49.70
7494;DHT22;3788;49.902;8.590;2023-07-13T12:28:52;26.40;49.40
7494;DHT22;3788;49.902;8.590;2023-07-13T12:31:40;26.40;49.20
7494;DHT22;3788;49.902;8.590;2023-07-13T12:34:09;26.50;48.90
7494;DHT22;3788;49.902;8.590;2023-07-13T12:36:39;26.50;49.10
7494;DHT22;3788;49.902;8.590;2023-07-13T12:39:16;26.40;48.70
7494;DHT22;3788;49.902;8.590;2023-07-13T12:41:44;26.40;49.30
7494;DHT22;3788;49.902;8.590;2023-07-13T12:44:12;26.40;49.30
7494;DHT22;3788;49.902;8.590;2023-07-13T12:46:47;26.30;49.60
7494;DHT22;3788;49.902;8.590;2023-07-13T12:49:17;26.30;49.30
7494;DHT22;3788;49.902;8.590;2023-07-13T12:51:50;26.40;49.70
7494;DHT22;3788;49.902;8.590;2023-07-13T12:54:19;26.40;49.30
7494;DHT22;3788;49.902;8.590;2023-07-13T12:56:49;26.40;49.60
7494;DHT22;3788;49.902;8.590;2023-07-13T12:59:20;26.40;49.90
7494;DHT22;3788;49.902;8.590;2023-07-13T13:01:49;26.40;49.90
7494;DHT22;3788;49.902;8.590;2023-07-13T13:04:16;26.40;50.00
7494;DHT22;3788;49.902;8.590;2023-07-13T13:06:47;26.40;49.40
7494;DHT22;3788;49.902;8.590;2023-07-13T13:09:15;26.40;49.20
7494;DHT22;3788;49.902;8.590;2023-07-13T13:11:45;26.40;49.60
7494;DHT22;3788;49.902;8.590;2023-07-13T13:14:11;26.40;50.30
7494;DHT22;3788;49.902;8.590;2023-07-13T13:16:45;26.30;50.00
7494;DHT22;3788;49.902;8.590;2023-07-13T13:19:14;26.30;50.40
7494;DHT22;3788;49.902;8.590;2023-07-13T13:21:43;26.20;50.70
7494;DHT22;3788;49.902;8.590;2023-07-13T13:24:11;26.20;50.20
7494;DHT22;3788;49.902;8.590;2023-07-13T13:26:39;26.30;50.70
7494;DHT22;3788;49.902;8.590;2023-07-13T13:29:12;26.30;50.10
7494;DHT22;3788;49.902;8.590;2023-07-13T13:31:40;26.30;49.80
7494;DHT22;3788;49.902;8.590;2023-07-13T13:34:08;26.30;50.10
7494;DHT22;3788;49.902;8.590;2023-07-13T13:36:36;26.30;50.50
7494;DHT22;3788;49.902;8.590;2023-07-13T13:39:05;26.20;50.40
7494;DHT22;3788;49.902;8.590;2023-07-13T13:41:32;26.20;50.50
7494;DHT22;3788;49.902;8.590;2023-07-13T13:43:59;26.20;50.40
7494;DHT22;3788;49.902;8.590;2023-07-13T13:46:27;26.20;50.00
7494;DHT22;3788;49.902;8.590;2023-07-13T13:48:55;26.20;50.50
7494;DHT22;3788;49.902;8.590;2023-07-13T13:51:23;26.20;50.40
7494;DHT22;3788;49.902;8.590;2023-07-13T13:53:50;26.20;50.30
7494;DHT22;3788;49.902;8.590;2023-07-13T13:56:19;26.10;50.70
7494;DHT22;3788;49.902;8.590;2023-07-13T13:58:46;26.00;50.30
7494;DHT22;3788;49.902;8.590;2023-07-13T14:01:17;26.00;50.10
7494;DHT22;3788;49.902;8.590;2023-07-13T14:03:45;25.90;50.90
7494;DHT22;3788;49.902;8.590;2023-07-13T14:06:14;25.90;50.90
7494;DHT22;3788;49.902;8.590;2023-07-13T14:08:41;26.00;51.00
7494;DHT22;3788;49.902;8.590;2023-07-13T14:11:11;26.00;51.20
7494;DHT22;3788;49.902;8.590;2023-07-13T14:13:42;26.10;51.00
7494;DHT22;3788;49.902;8.590;2023-07-13T14:16:11;26.10;50.30
7494;DHT22;3788;49.902;8.590;2023-07-13T14:18:39;26.00;50.80
7494;DHT22;3788;49.902;8.590;2023-07-13T14:21:12;26.00;50.80
7494;DHT22;3788;49.902;8.590;2023-07-13T14:23:39;25.90;50.90
7494;DHT22;3788;49.902;8.590;2023-07-13T14:26:10;25.90;50.90
7494;DHT22;3788;49.902;8.590;2023-07-13T14:28:41;25.90;50.70
7494;DHT22;3788;49.902;8.590;2023-07-13T14:31:08;25.90;50.90
7494;DHT22;3788;49.902;8.590;2023-07-13T14:33:35;25.90;50.80
7494;DHT22;3788;49.902;8.590;2023-07-13T14:36:03;25.90;50.90
7494;DHT22;3788;49.902;8.590;2023-07-13T14:38:31;25.90;51.40
7494;DHT22;3788;49.902;8.590;2023-07-13T14:40:58;25.90;51.40
7494;DHT22;3788;49.902;8.590;2023-07-13T14:43:24;26.00;51.20
7494;DHT22;3788;49.902;8.590;2023-07-13T14:45:53;26.00;51.40
7494;DHT22;3788;49.902;8.590;2023-07-13T14:48:22;26.00;50.60
7494;DHT22;3788;49.902;8.590;2023-07-13T14:50:53;26.00;51.20
7494;DHT22;3788;49.902;8.590;2023-07-13T14:53:21;25.90;51.10
7494;DHT22;3788;49.902;8.590;2023-07-13T14:55:49;26.00;51.40
7494;DHT22;3788;49.902;8.590;2023-07-13T14:58:16;26.00;50.50
7494;DHT22;3788;49.902;8.590;2023-07-13T15:00:42;26.00;50.30
7494;DHT22;3788;49.902;8.590;2023-07-13T15:03:17;25.90;50.60
7494;DHT22;3788;49.902;8.590;2023-07-13T15:05:46;25.80;50.60
7494;DHT22;3788;49.902;8.590;2023-07-13T15:08:14;25.80;51.00
7494;DHT22;3788;49.902;8.590;2023-07-13T15:10:41;25.70;51.30
7494;DHT22;3788;49.902;8.590;2023-07-13T15:13:16;25.60;51.40
7494;DHT22;3788;49.902;8.590;2023-07-13T15:15:45;25.50;51.70
7494;DHT22;3788;49.902;8.590;2023-07-13T15:18:14;25.40;52.00
7494;DHT22;3788;49.902;8.590;2023-07-13T15:20:43;25.40;52.00
7494;DHT22;3788;49.902;8.590;2023-07-13T15:23:11;25.30;52.00
7494;DHT22;3788;49.902;8.590;2023-07-13T15:25:40;25.30;52.00
7494;DHT22;3788;49.902;8.590;2023-07-13T15:28:08;25.30;52.20
7494;DHT22;3788;49.902;8.590;2023-07-13T15:30:40;25.30;52.30
7494;DHT22;3788;49.902;8.590;2023-07-13T15:33:12;25.30;52.20
7494;DHT22;3788;49.902;8.590;2023-07-13T15:35:39;25.30;52.20
7494;DHT22;3788;49.902;8.590;2023-07-13T15:38:13;25.30;52.20
7494;DHT22;3788;49.902;8.590;2023-07-13T15:40:41;25.40;52.20
7494;DHT22;3788;49.902;8.590;2023-07-13T15:43:10;25.30;52.30
7494;DHT22;3788;49.902;8.590;2023-07-13T15:45:39;25.40;52.10
7494;DHT22;3788;49.902;8.590;2023-07-13T15:48:13;25.40;52.40
7494;DHT22;3788;49.902;8.590;2023-07-13T15:50:43;25.40;52.40
7494;DHT22;3788;49.902;8.590;2023-07-13T15:53:10;25.30;52.30
7494;DHT22;3788;49.902;8.590;2023-07-13T15:55:38;25.40;52.50
7494;DHT22;3788;49.902;8.590;2023-07-13T15:58:05;25.40;52.40
7494;DHT22;3788;49.902;8.590;2023-07-13T16:00:32;25.40;52.20
7494;DHT22;3788;49.902;8.590;2023-07-13T16:03:01;25.50;52.10
7494;DHT22;3788;49.902;8.590;2023-07-13T16:05:27;25.40;51.80
7494;DHT22;3788;49.902;8.590;2023-07-13T16:07:56;25.40;52.00
7494;DHT22;3788;49.902;8.590;2023-07-13T16:10:29;25.40;51.80
7494;DHT22;3788;49.902;8.590;2023-07-13T16:12:57;25.40;52.00